Time;durP1;ratioP1;P1;durP2;ratioP2;P2;SDS_P1;SDS_P2;PMS_P1;PMS_P2;Temp;Humidity;BMP_temperature;BMP_pressure;BME280_temperature;BME280_humidity;BME280_pressure;Samples;Min_cycle;Max_cycle;Signal;HPM_P1;HPM_P2
2024/02/16 00:00:50;;;;;;;11.80;4.72;;;;;;;9.58;76.83;100187.72;2505015;28;20049;-80
2024/02/16 00:02:03;;;;;;;15.65;5.55;;;;;;;9.58;76.81;100195.53;2497025;28;20044;-80
2024/02/16 00:03:18;;;;;;;6.63;4.43;;;;;;;9.58;76.75;100190.31;2505362;28;20046;-80
2024/02/16 00:04:31;;;;;;;7.68;5.32;;;;;;;9.58;76.78;100190.31;2505186;28;20047;-80
2024/02/16 00:05:47;;;;;;;12.35;5.90;;;;;;;9.59;76.75;100196.38;2505412;28;20133;-81
2024/02/16 00:07:00;;;;;;;12.65;5.10;;;;;;;9.57;76.79;100187.72;2512079;28;20338;-80
2024/02/16 00:08:14;;;;;;;11.18;5.10;;;;;;;9.56;76.86;100184.25;2514925;28;20044;-80
2024/02/16 00:09:28;;;;;;;8.27;5.28;;;;;;;9.55;76.91;100185.16;2510121;28;20058;-80
2024/02/16 00:10:42;;;;;;;8.02;5.97;;;;;;;9.55;77.33;100184.25;2505276;28;20038;-80
2024/02/16 00:11:56;;;;;;;13.85;5.38;;;;;;;9.55;77.23;100185.16;2504179;28;20064;-78
2024/02/16 00:13:10;;;;;;;9.95;5.63;;;;;;;9.54;76.99;100182.56;2503113;28;20498;-78
2024/02/16 00:14:24;;;;;;;7.03;4.45;;;;;;;9.53;76.97;100184.31;2505300;28;20047;-80
2024/02/16 00:15:39;;;;;;;7.13;4.55;;;;;;;9.52;77.18;100181.69;2505369;28;20049;-81
2024/02/16 00:16:54;;;;;;;10.43;5.68;;;;;;;9.50;77.17;100186.94;2504070;28;20130;-79
2024/02/16 00:18:08;;;;;;;7.25;4.47;;;;;;;9.48;77.09;100183.50;2504692;28;20080;-81
2024/02/16 00:19:22;;;;;;;9.57;4.13;;;;;;;9.46;77.07;100185.25;2505454;28;20150;-80
2024/02/16 00:20:36;;;;;;;12.80;5.30;;;;;;;9.44;77.18;100186.16;2504748;28;20062;-80
2024/02/16 00:21:51;;;;;;;13.77;5.28;;;;;;;9.42;77.34;100174.88;2505262;28;20050;-80
2024/02/16 00:23:06;;;;;;;11.68;4.82;;;;;;;9.42;77.27;100186.16;2505201;28;20075;-79
2024/02/16 00:24:19;;;;;;;7.90;5.63;;;;;;;9.43;77.44;100192.25;2504307;28;20046;-82
2024/02/16 00:25:34;;;;;;;11.23;5.45;;;;;;;9.43;77.39;100190.50;2504157;28;20043;-80
2024/02/16 00:26:47;;;;;;;10.98;5.50;;;;;;;9.44;77.42;100181.78;2504843;28;20055;-79
2024/02/16 00:28:03;;;;;;;8.02;4.75;;;;;;;9.45;77.51;100188.75;2504183;28;20127;-80
2024/02/16 00:29:16;;;;;;;5.50;4.55;;;;;;;9.46;77.65;100185.25;2504656;28;20047;-79
2024/02/16 00:30:30;;;;;;;15.63;6.57;;;;;;;9.49;77.42;100194.78;2509767;28;20530;-80
2024/02/16 00:31:44;;;;;;;11.18;5.15;;;;;;;9.50;77.53;100196.47;2507106;28;20051;-80
2024/02/16 00:33:00;;;;;;;13.18;5.72;;;;;;;9.52;77.46;100189.50;2503682;28;20504;-80
2024/02/16 00:34:14;;;;;;;29.13;15.55;;;;;;;9.51;77.58;100193.88;2503792;28;20416;-80
2024/02/16 00:35:33;;;;;;;12.40;7.95;;;;;;;9.53;77.45;100189.50;2504081;28;20047;-81
2024/02/16 00:36:46;;;;;;;16.45;11.20;;;;;;;9.55;77.44;100192.97;2503965;28;20608;-80
2024/02/16 00:38:00;;;;;;;12.00;6.28;;;;;;;9.57;77.55;100193.78;2504059;28;20050;-79
2024/02/16 00:39:14;;;;;;;5.38;4.72;;;;;;;9.58;77.51;100194.69;2504172;28;20488;-80
2024/02/16 00:40:28;;;;;;;6.68;5.72;;;;;;;9.59;77.47;100194.63;2502176;28;20049;-79
2024/02/16 00:41:42;;;;;;;8.57;5.10;;;;;;;9.61;77.51;100195.50;2501590;28;20503;-81
2024/02/16 00:42:56;;;;;;;8.07;5.47;;;;;;;9.63;77.54;100194.59;2504190;28;20126;-79
2024/02/16 00:44:10;;;;;;;8.75;5.70;;;;;;;9.63;77.39;100190.28;2504243;28;20050;-81
2024/02/16 00:45:24;;;;;;;12.35;6.68;;;;;;;9.64;77.56;100185.91;2504577;28;20122;-79
2024/02/16 00:46:38;;;;;;;11.18;5.28;;;;;;;9.65;77.56;100190.22;2504840;28;20082;-79
2024/02/16 00:47:52;;;;;;;10.55;5.25;;;;;;;9.66;77.47;100185.03;2504013;28;20411;-79
2024/02/16 00:49:10;;;;;;;10.73;5.55;;;;;;;9.66;77.53;100186.78;2511688;28;20050;-80
2024/02/16 00:50:25;;;;;;;8.32;5.47;;;;;;;9.66;77.41;100179.81;2511666;28;20053;-83
2024/02/16 00:51:39;;;;;;;7.00;4.95;;;;;;;9.67;77.65;100184.13;2509546;28;20109;-81
2024/02/16 00:52:53;;;;;;;9.07;5.30;;;;;;;9.67;77.45;100184.13;2504268;28;20046;-81
2024/02/16 00:54:07;;;;;;;7.72;4.65;;;;;;;9.69;77.53;100178.91;2503745;28;20485;-83
2024/02/16 00:55:21;;;;;;;5.47;4.90;;;;;;;9.69;77.60;100184.13;2521069;28;20103;-83
2024/02/16 00:56:35;;;;;;;15.68;6.65;;;;;;;9.68;77.58;100187.59;2515597;28;20062;-80
2024/02/16 00:57:49;;;;;;;9.85;6.32;;;;;;;9.68;77.68;100188.47;2507886;28;20126;-81
2024/02/16 00:59:03;;;;;;;8.13;4.80;;;;;;;9.68;77.52;100185.88;2505015;28;20061;-80
2024/02/16 01:00:19;;;;;;;6.10;4.85;;;;;;;9.68;77.59;100178.06;2504167;28;20129;-81
2024/02/16 01:01:32;;;;;;;8.65;4.53;;;;;;;9.68;77.86;100177.16;2504775;28;20054;-81
2024/02/16 01:02:47;;;;;;;9.10;4.88;;;;;;;9.69;77.83;100181.50;2511518;28;20567;-80
2024/02/16 01:04:00;;;;;;;7.30;6.10;;;;;;;9.69;77.77;100187.56;2505412;28;20054;-80
2024/02/16 01:05:17;;;;;;;9.80;5.70;;;;;;;9.71;77.88;100179.75;2504690;28;20050;-80
2024/02/16 01:06:31;;;;;;;12.57;5.25;;;;;;;9.72;77.82;100182.31;2504449;28;20051;-81
2024/02/16 01:07:45;;;;;;;7.63;4.82;;;;;;;9.72;77.73;100178.88;2504557;28;20043;-83
2024/02/16 01:08:59;;;;;;;10.20;5.32;;;;;;;9.72;77.87;100178.88;2503736;28;20054;-81
2024/02/16 01:10:13;;;;;;;8.32;5.60;;;;;;;9.71;77.92;100175.41;2507607;28;20110;-80
2024/02/16 01:11:27;;;;;;;5.47;4.57;;;;;;;9.71;77.64;100184.97;2514393;28;20042;-81
2024/02/16 01:12:42;;;;;;;8.32;5.05;;;;;;;9.70;77.74;100183.22;2507509;28;20046;-82
2024/02/16 01:13:55;;;;;;;7.43;5.70;;;;;;;9.69;77.58;100182.38;2504433;28;20142;-81
2024/02/16 01:15:11;;;;;;;8.13;5.43;;;;;;;9.69;77.68;100181.50;2504626;28;20061;-81
2024/02/16 01:16:24;;;;;;;9.00;6.35;;;;;;;9.67;77.70;100183.28;2503766;28;20512;-82
2024/02/16 01:17:39;;;;;;;5.97;5.32;;;;;;;9.66;77.67;100184.16;2504389;28;20047;-80
2024/02/16 01:18:53;;;;;;;8.02;5.03;;;;;;;9.64;77.79;100181.56;2512261;28;20484;-80
2024/02/16 01:20:10;;;;;;;6.03;5.05;;;;;;;9.64;77.70;100183.31;2503984;28;20066;-81
2024/02/16 01:21:25;;;;;;;8.25;4.55;;;;;;;9.61;77.75;100177.25;2504341;28;20480;-80
2024/02/16 01:22:40;;;;;;;7.25;4.63;;;;;;;9.62;78.00;100180.72;2504149;28;20047;-81
2024/02/16 01:23:53;;;;;;;8.93;5.43;;;;;;;9.61;77.96;100179.84;2504694;28;20050;-81
2024/02/16 01:25:08;;;;;;;6.68;5.30;;;;;;;9.62;77.77;100185.91;2511766;28;20117;-81
2024/02/16 01:26:22;;;;;;;12.93;5.90;;;;;;;9.61;77.99;100185.06;2504049;28;20046;-81
2024/02/16 01:27:37;;;;;;;5.35;4.82;;;;;;;9.63;77.87;100181.56;2504037;28;20046;-81
2024/02/16 01:28:50;;;;;;;20.27;5.45;;;;;;;9.64;78.16;100183.31;2503764;28;20038;-80
2024/02/16 01:30:05;;;;;;;19.33;8.73;;;;;;;9.64;78.00;100183.31;2503924;28;20471;-81
2024/02/16 01:31:19;;;;;;;7.70;6.25;;;;;;;9.62;78.02;100180.72;2504313;28;20059;-82
2024/02/16 01:32:34;;;;;;;7.15;4.53;;;;;;;9.61;78.08;100179.00;2503840;28;20056;-81
2024/02/16 01:33:48;;;;;;;10.10;6.50;;;;;;;9.58;77.99;100174.69;2504338;28;20050;-81
2024/02/16 01:35:02;;;;;;;11.98;5.63;;;;;;;9.57;77.94;100177.31;2504275;28;20047;-80
2024/02/16 01:36:16;;;;;;;7.32;4.78;;;;;;;9.55;78.00;100173.84;2503831;28;20058;-81
2024/02/16 01:37:31;;;;;;;8.15;5.40;;;;;;;9.53;77.84;100176.50;2503595;28;20451;-81
2024/02/16 01:38:45;;;;;;;7.35;4.65;;;;;;;9.51;77.78;100172.19;2503957;28;20054;-81
2024/02/16 01:39:59;;;;;;;6.75;5.38;;;;;;;9.48;77.88;100170.47;2503761;28;20501;-80
2024/02/16 01:41:15;;;;;;;9.63;5.00;;;;;;;9.47;78.06;100175.69;2503525;28;20424;-81
2024/02/16 01:42:29;;;;;;;6.60;4.93;;;;;;;9.44;78.09;100168.78;2503914;28;20547;-80
2024/02/16 01:43:42;;;;;;;26.70;7.60;;;;;;;9.44;78.01;100173.13;2513713;28;20046;-80
2024/02/16 01:44:57;;;;;;;9.10;6.43;;;;;;;9.42;78.07;100173.13;2505039;28;20045;-82
2024/02/16 01:46:10;;;;;;;7.70;6.00;;;;;;;9.42;78.41;100173.13;2504223;28;20424;-81
2024/02/16 01:47:25;;;;;;;10.90;6.38;;;;;;;9.41;78.39;100179.22;2503835;28;20053;-82
2024/02/16 01:48:39;;;;;;;8.90;5.75;;;;;;;9.39;78.31;100175.78;2503624;28;20393;-80
2024/02/16 01:49:54;;;;;;;10.63;6.15;;;;;;;9.36;78.50;100168.84;2503973;28;20467;-81
2024/02/16 01:51:09;;;;;;;10.48;5.57;;;;;;;9.33;78.37;100181.06;2503925;28;20047;-81
2024/02/16 01:52:23;;;;;;;5.97;4.28;;;;;;;9.29;78.33;100172.44;2504050;28;20094;-81
2024/02/16 01:53:38;;;;;;;10.32;5.55;;;;;;;9.27;78.62;100184.59;2504676;28;20058;-81
2024/02/16 01:54:53;;;;;;;5.53;4.45;;;;;;;9.26;78.46;100182.00;2504696;28;20050;-80
2024/02/16 01:56:06;;;;;;;7.97;4.53;;;;;;;9.24;78.49;100178.53;2503789;28;20054;-80
2024/02/16 01:57:21;;;;;;;5.80;4.47;;;;;;;9.22;78.56;100169.91;2507318;28;20129;-80
2024/02/16 01:58:34;;;;;;;9.57;5.35;;;;;;;9.18;78.64;100176.88;2514094;28;20051;-82
2024/02/16 01:59:49;;;;;;;7.97;5.97;;;;;;;9.14;78.58;100181.25;2513814;28;20053;-81
2024/02/16 02:01:04;;;;;;;5.85;5.22;;;;;;;9.11;78.84;100181.28;2517314;28;20047;-83
2024/02/16 02:02:18;;;;;;;8.10;4.60;;;;;;;9.09;78.73;100179.59;2509567;28;20412;-81
2024/02/16 02:03:32;;;;;;;9.45;7.55;;;;;;;9.06;78.58;100180.47;2504326;28;20089;-81
2024/02/16 02:04:46;;;;;;;10.50;5.70;;;;;;;9.05;78.87;100183.09;2503833;28;20117;-81
2024/02/16 02:05:59;;;;;;;9.13;4.97;;;;;;;9.03;78.93;100179.63;2504066;28;20047;-81
2024/02/16 02:07:14;;;;;;;6.38;4.72;;;;;;;9.02;78.93;100176.16;2504023;28;20070;-81
2024/02/16 02:08:28;;;;;;;11.02;5.38;;;;;;;9.00;79.05;100177.91;2503750;28;20043;-81
2024/02/16 02:09:43;;;;;;;13.23;4.97;;;;;;;8.98;78.91;100174.47;2507857;28;20057;-81
2024/02/16 02:10:57;;;;;;;26.40;19.73;;;;;;;8.96;78.81;100173.63;2503998;28;20109;-81
2024/02/16 02:12:11;;;;;;;11.23;7.07;;;;;;;8.95;79.06;100183.16;2503559;28;20054;-81
2024/02/16 02:13:25;;;;;;;8.90;4.53;;;;;;;8.93;79.24;100179.75;2504370;28;20074;-81
2024/02/16 02:14:39;;;;;;;8.68;6.18;;;;;;;8.92;79.16;100171.94;2504555;28;20177;-80
2024/02/16 02:15:53;;;;;;;11.25;7.90;;;;;;;8.92;79.12;100171.94;2504546;28;20054;-81
2024/02/16 02:17:08;;;;;;;15.93;5.32;;;;;;;8.90;78.94;100171.06;2503506;28;20051;-80
2024/02/16 02:18:21;;;;;;;7.75;5.38;;;;;;;8.89;79.32;100170.22;2503933;28;20141;-82
2024/02/16 02:19:36;;;;;;;12.80;6.38;;;;;;;8.87;79.20;100173.72;2510382;28;20046;-81
2024/02/16 02:20:49;;;;;;;9.10;4.40;;;;;;;8.84;79.23;100173.75;2507370;28;20087;-81
2024/02/16 02:22:04;;;;;;;7.18;6.25;;;;;;;8.82;79.32;100175.50;2504900;28;20046;-81
2024/02/16 02:23:20;;;;;;;5.93;4.90;;;;;;;8.80;79.14;100166.84;2504876;28;20416;-81
2024/02/16 02:24:33;;;;;;;7.07;4.13;;;;;;;8.76;79.43;100173.81;2504593;28;20043;-80
2024/02/16 02:25:48;;;;;;;6.80;4.65;;;;;;;8.71;79.28;100166.03;2505168;28;20126;-81
2024/02/16 02:27:02;;;;;;;21.48;10.05;;;;;;;8.68;79.15;100168.69;2505273;28;20043;-80
2024/02/16 02:28:17;;;;;;;7.28;5.72;;;;;;;8.66;79.21;100172.16;2507210;28;20061;-81
2024/02/16 02:29:30;;;;;;;7.82;5.03;;;;;;;8.64;79.40;100173.91;2510848;28;20054;-81
2024/02/16 02:30:45;;;;;;;8.30;4.97;;;;;;;8.61;79.49;100164.41;2501188;28;20043;-81
2024/02/16 02:31:59;;;;;;;7.28;5.22;;;;;;;8.59;79.55;100168.75;2511505;28;20105;-81
2024/02/16 02:33:13;;;;;;;6.30;4.82;;;;;;;8.58;79.42;100168.78;2504059;28;20525;-81
2024/02/16 02:34:27;;;;;;;5.95;4.93;;;;;;;8.56;79.51;100170.53;2503731;28;20039;-81
2024/02/16 02:35:41;;;;;;;7.07;5.38;;;;;;;8.54;79.64;100172.25;2503787;28;20081;-81
2024/02/16 02:36:55;;;;;;;7.40;4.72;;;;;;;8.51;79.57;100171.41;2503136;28;20050;-81
2024/02/16 02:38:09;;;;;;;9.38;5.80;;;;;;;8.52;79.76;100174.88;2510796;28;20133;-81
2024/02/16 02:39:24;;;;;;;6.82;5.95;;;;;;;8.50;79.64;100164.50;2504029;28;20057;-80
2024/02/16 02:40:39;;;;;;;6.53;5.75;;;;;;;8.49;79.79;100172.28;2503287;28;20101;-81
2024/02/16 02:41:52;;;;;;;8.63;5.93;;;;;;;8.47;79.80;100166.25;2503350;28;20135;-81
2024/02/16 02:43:07;;;;;;;7.35;5.45;;;;;;;8.46;79.86;100174.91;2504560;28;20429;-81
2024/02/16 02:44:20;;;;;;;9.48;5.18;;;;;;;8.44;79.87;100171.47;2502254;28;20050;-80
2024/02/16 02:45:35;;;;;;;7.43;5.30;;;;;;;8.43;79.90;100164.53;2504339;28;20118;-81
2024/02/16 02:46:48;;;;;;;10.68;5.43;;;;;;;8.42;79.92;100170.63;2504520;28;20050;-80
2024/02/16 02:48:03;;;;;;;5.60;5.03;;;;;;;8.40;80.05;100170.63;2504133;28;20425;-80
2024/02/16 02:49:16;;;;;;;6.50;4.85;;;;;;;8.41;79.90;100167.16;2505037;28;20174;-81
2024/02/16 02:50:31;;;;;;;6.82;6.20;;;;;;;8.40;80.03;100165.44;2506483;28;20051;-80
2024/02/16 02:51:45;;;;;;;6.60;4.60;;;;;;;8.38;80.04;100164.53;2505571;28;20134;-80
2024/02/16 02:52:59;;;;;;;7.80;4.88;;;;;;;8.39;79.88;100160.19;2504692;28;20393;-81
2024/02/16 02:54:13;;;;;;;9.10;5.15;;;;;;;8.37;80.08;100161.97;2497879;28;20055;-82
2024/02/16 02:55:28;;;;;;;8.52;5.70;;;;;;;8.36;79.95;100165.44;2506242;28;20111;-81
2024/02/16 02:56:43;;;;;;;8.18;4.15;;;;;;;8.35;80.04;100168.91;2505347;28;20047;-81
2024/02/16 02:57:57;;;;;;;9.48;5.95;;;;;;;8.33;80.03;100162.84;2505124;28;20074;-82
2024/02/16 02:59:11;;;;;;;11.73;6.18;;;;;;;8.32;80.00;100162.00;2513489;28;20070;-81
2024/02/16 03:00:25;;;;;;;6.07;4.95;;;;;;;8.33;79.87;100157.66;2505396;28;20492;-81
2024/02/16 03:01:39;;;;;;;7.03;5.20;;;;;;;8.36;80.29;100157.63;2506672;28;20118;-83
2024/02/16 03:02:53;;;;;;;5.28;4.78;;;;;;;8.35;80.27;100161.97;2505728;28;20046;-81
2024/02/16 03:04:07;;;;;;;9.18;5.32;;;;;;;8.36;80.25;100165.44;2505369;28;20051;-81
2024/02/16 03:05:22;;;;;;;10.55;5.32;;;;;;;8.37;80.23;100164.56;2505426;28;20067;-81
2024/02/16 03:06:36;;;;;;;11.40;5.03;;;;;;;8.39;80.28;100160.19;2505730;28;20073;-81
2024/02/16 03:07:51;;;;;;;9.57;4.97;;;;;;;8.40;80.20;100161.97;2512299;28;20042;-82
2024/02/16 03:09:05;;;;;;;5.80;5.15;;;;;;;8.40;80.21;100151.56;2507054;28;20050;-82
2024/02/16 03:10:23;;;;;;;5.50;4.80;;;;;;;8.41;80.11;100158.50;2513479;28;20047;-81
2024/02/16 03:11:38;;;;;;;7.05;5.57;;;;;;;8.41;80.10;100153.28;2510251;28;20143;-84
2024/02/16 03:12:54;;;;;;;6.20;4.90;;;;;;;8.42;80.16;100155.03;2518189;28;20057;-81
2024/02/16 03:14:07;;;;;;;5.80;4.38;;;;;;;8.42;80.20;100152.44;2508359;28;20061;-81
2024/02/16 03:15:22;;;;;;;9.48;4.47;;;;;;;8.42;79.93;100152.44;2506661;28;20114;-82
2024/02/16 03:16:36;;;;;;;10.00;4.68;;;;;;;8.40;79.91;100155.03;2505534;28;20078;-82
2024/02/16 03:17:50;;;;;;;5.93;5.05;;;;;;;8.38;80.07;100153.28;2513428;28;20046;-82
2024/02/16 03:19:06;;;;;;;8.48;4.60;;;;;;;8.37;79.89;100152.44;2507222;28;20051;-82
2024/02/16 03:20:21;;;;;;;8.48;6.35;;;;;;;8.36;79.87;100149.81;2508194;28;20510;-80
2024/02/16 03:21:34;;;;;;;9.13;5.43;;;;;;;8.34;79.90;100152.47;2513337;28;20053;-80
2024/02/16 03:22:49;;;;;;;4.63;3.60;;;;;;;8.34;80.00;100148.97;2515233;28;20560;-81
2024/02/16 03:24:03;;;;;;;5.50;4.72;;;;;;;8.33;79.91;100157.66;2507093;28;20637;-81
2024/02/16 03:25:18;;;;;;;11.20;4.68;;;;;;;8.30;79.74;100146.41;2505806;28;20106;-81
2024/02/16 03:26:32;;;;;;;4.95;4.00;;;;;;;8.30;79.76;100156.78;2505371;28;20053;-81
2024/02/16 03:27:48;;;;;;;11.63;5.22;;;;;;;8.30;79.89;100148.16;2505304;28;20518;-81
2024/02/16 03:29:01;;;;;;;7.93;4.97;;;;;;;8.28;79.67;100144.69;2505230;28;20045;-81
2024/02/16 03:30:16;;;;;;;7.22;5.07;;;;;;;8.25;79.91;100148.16;2505377;28;20167;-80
2024/02/16 03:31:29;;;;;;;8.60;5.90;;;;;;;8.24;79.94;100153.41;2505337;28;20050;-81
2024/02/16 03:32:44;;;;;;;15.38;4.55;;;;;;;8.22;79.81;100142.13;2504742;28;20043;-80
2024/02/16 03:33:57;;;;;;;5.95;4.47;;;;;;;8.20;79.76;100144.75;2511990;28;20038;-81
2024/02/16 03:35:12;;;;;;;6.30;4.40;;;;;;;8.18;79.77;100146.47;2507352;28;20057;-80
2024/02/16 03:36:25;;;;;;;5.22;4.30;;;;;;;8.16;79.75;100149.97;2511672;28;20043;-81
2024/02/16 03:37:40;;;;;;;9.02;5.03;;;;;;;8.15;79.89;100150.84;2505127;28;20051;-81
2024/02/16 03:38:53;;;;;;;7.07;5.30;;;;;;;8.13;79.89;100148.28;2504954;28;20055;-80
2024/02/16 03:40:09;;;;;;;7.75;5.32;;;;;;;8.12;80.07;100149.13;2512277;28;20056;-80
2024/02/16 03:41:23;;;;;;;9.82;4.97;;;;;;;8.13;79.75;100147.38;2504841;28;20082;-81
2024/02/16 03:42:37;;;;;;;9.75;4.88;;;;;;;8.11;80.10;100149.16;2504644;28;20039;-80
2024/02/16 03:43:53;;;;;;;8.65;5.32;;;;;;;8.10;80.00;100148.28;2505011;28;20050;-79
2024/02/16 03:45:08;;;;;;;10.95;4.57;;;;;;;8.08;79.91;100150.03;2504078;28;20058;-80
2024/02/16 03:46:22;;;;;;;5.45;4.00;;;;;;;8.06;79.88;100146.59;2504448;28;20054;-81
2024/02/16 03:47:36;;;;;;;6.30;5.00;;;;;;;8.02;79.96;100143.13;2504929;28;20078;-80
2024/02/16 03:48:50;;;;;;;7.82;4.82;;;;;;;8.00;80.09;100150.09;2504759;28;20043;-80
2024/02/16 03:50:05;;;;;;;7.07;4.05;;;;;;;7.99;80.13;100152.69;2505360;28;20121;-81
2024/02/16 03:51:18;;;;;;;5.60;4.45;;;;;;;7.97;80.04;100154.44;2505519;28;20058;-81
2024/02/16 03:52:33;;;;;;;7.55;3.75;;;;;;;7.96;80.08;100157.91;2504737;28;20042;-82
2024/02/16 03:53:46;;;;;;;11.07;4.78;;;;;;;7.95;80.15;100156.16;2504791;28;20054;-81
2024/02/16 03:55:01;;;;;;;8.73;5.18;;;;;;;7.94;80.36;100160.50;2505522;28;20385;-81
2024/02/16 03:56:18;;;;;;;4.93;4.50;;;;;;;7.95;80.27;100153.56;2504561;28;20055;-81
2024/02/16 03:57:33;;;;;;;11.00;5.78;;;;;;;7.96;80.32;100166.56;2505172;28;20051;-81
2024/02/16 03:58:47;;;;;;;9.55;5.20;;;;;;;7.97;80.44;100159.63;2505039;28;20055;-81
2024/02/16 04:00:05;;;;;;;6.10;4.65;;;;;;;7.97;80.61;100164.81;2504729;28;20455;-80
2024/02/16 04:01:19;;;;;;;6.63;4.57;;;;;;;7.96;80.62;100158.75;2496657;28;20489;-80
2024/02/16 04:02:33;;;;;;;7.82;4.97;;;;;;;7.97;80.66;100167.41;2504993;28;20049;-81
2024/02/16 04:03:46;;;;;;;6.80;4.38;;;;;;;7.95;80.64;100163.97;2505134;28;20055;-81
2024/02/16 04:05:03;;;;;;;5.47;4.50;;;;;;;7.95;80.66;100169.16;2505195;28;20046;-80
2024/02/16 04:06:16;;;;;;;8.38;4.35;;;;;;;7.94;80.69;100172.63;2505366;28;20055;-82
2024/02/16 04:07:31;;;;;;;7.18;4.68;;;;;;;7.93;80.62;100171.78;2505035;28;20051;-80
2024/02/16 04:08:44;;;;;;;6.75;4.43;;;;;;;7.93;80.67;100166.59;2504741;28;20456;-81
2024/02/16 04:10:00;;;;;;;8.82;5.47;;;;;;;7.93;80.83;100165.72;2504641;28;20043;-80
2024/02/16 04:11:15;;;;;;;7.57;4.97;;;;;;;7.92;80.46;100175.22;2504980;28;20058;-81
2024/02/16 04:12:29;;;;;;;6.32;5.10;;;;;;;7.92;80.93;100177.81;2504352;28;20047;-80
2024/02/16 04:13:42;;;;;;;8.73;4.53;;;;;;;7.93;80.78;100170.91;2505501;28;20053;-82
2024/02/16 04:14:57;;;;;;;8.88;4.90;;;;;;;7.94;80.55;100175.22;2505176;28;20126;-80
2024/02/16 04:16:12;;;;;;;5.78;4.28;;;;;;;7.93;80.64;100176.13;2505649;28;20061;-84
2024/02/16 04:17:26;;;;;;;9.15;4.75;;;;;;;7.92;80.60;100172.63;2507237;28;20062;-83
2024/02/16 04:18:40;;;;;;;6.65;4.72;;;;;;;7.92;80.68;100171.78;2507853;28;20042;-83
2024/02/16 04:19:54;;;;;;;8.55;5.32;;;;;;;7.92;80.61;100180.44;2513609;28;20125;-82
2024/02/16 04:21:07;;;;;;;12.32;6.38;;;;;;;7.91;80.72;100183.91;2509131;28;20051;-84
2024/02/16 04:22:22;;;;;;;8.70;7.13;;;;;;;7.92;80.51;100180.44;2516654;28;20115;-83
2024/02/16 04:23:35;;;;;;;7.97;4.88;;;;;;;7.90;80.67;100178.72;2518362;28;20038;-83
2024/02/16 04:24:50;;;;;;;12.80;5.70;;;;;;;7.88;80.60;100181.34;2511673;28;20089;-83
2024/02/16 04:26:06;;;;;;;6.72;5.88;;;;;;;7.86;80.71;100181.31;2510688;28;20566;-84
2024/02/16 04:27:21;;;;;;;9.63;4.45;;;;;;;7.85;80.71;100178.75;2518218;28;20046;-83
2024/02/16 04:28:34;;;;;;;9.35;6.90;;;;;;;7.83;80.75;100173.56;2514187;28;20053;-83
2024/02/16 04:29:49;;;;;;;7.93;4.32;;;;;;;7.84;80.71;100188.25;2511025;28;20078;-83
2024/02/16 04:31:02;;;;;;;8.05;5.18;;;;;;;7.83;80.64;100188.28;2505924;28;20389;-83
2024/02/16 04:32:18;;;;;;;4.70;4.20;;;;;;;7.81;80.87;100187.41;2507171;28;20078;-83
2024/02/16 04:33:32;;;;;;;6.88;5.32;;;;;;;7.77;80.49;100186.59;2513291;28;20047;-83
2024/02/16 04:34:46;;;;;;;5.15;4.55;;;;;;;7.75;80.47;100188.31;2506486;28;20175;-83
2024/02/16 04:35:59;;;;;;;5.15;4.20;;;;;;;7.73;80.55;100190.06;2505616;28;20097;-83
2024/02/16 04:37:14;;;;;;;4.82;4.43;;;;;;;7.71;80.50;100188.34;2505852;28;20388;-82
2024/02/16 04:38:28;;;;;;;7.88;4.88;;;;;;;7.68;80.38;100190.94;2506369;28;20098;-83
2024/02/16 04:39:43;;;;;;;7.53;5.22;;;;;;;7.66;80.43;100188.34;2505607;28;20117;-82
2024/02/16 04:40:56;;;;;;;5.35;4.45;;;;;;;7.64;80.58;100187.47;2505830;28;20078;-84
2024/02/16 04:42:11;;;;;;;7.55;4.65;;;;;;;7.60;80.35;100188.38;2505330;28;20055;-83
2024/02/16 04:43:25;;;;;;;7.28;4.57;;;;;;;7.57;80.66;100188.41;2506280;28;20113;-84
2024/02/16 04:44:39;;;;;;;5.38;4.75;;;;;;;7.55;80.62;100184.94;2505322;28;20547;-84
2024/02/16 04:45:54;;;;;;;4.45;4.03;;;;;;;7.52;80.58;100187.56;2505870;28;20051;-84
2024/02/16 04:47:09;;;;;;;6.05;4.57;;;;;;;7.50;80.73;100191.88;2505867;28;20069;-83
2024/02/16 04:48:23;;;;;;;5.85;4.68;;;;;;;7.46;80.83;100192.75;2505558;28;20101;-82
2024/02/16 04:49:38;;;;;;;7.32;5.78;;;;;;;7.41;80.93;100196.25;2505959;28;20077;-83
2024/02/16 04:50:52;;;;;;;6.93;4.40;;;;;;;7.38;80.78;100193.66;2505714;28;20057;-83
2024/02/16 04:52:08;;;;;;;4.97;3.88;;;;;;;7.36;80.73;100194.53;2505464;28;20053;-84
2024/02/16 04:53:22;;;;;;;4.90;4.32;;;;;;;7.32;80.72;100193.66;2506202;28;20114;-83
2024/02/16 04:54:36;;;;;;;6.68;4.68;;;;;;;7.31;80.80;100201.47;2505445;28;20047;-83
2024/02/16 04:55:50;;;;;;;5.13;4.63;;;;;;;7.28;80.96;100189.38;2505253;28;20047;-83
2024/02/16 04:57:05;;;;;;;8.75;4.70;;;;;;;7.25;80.98;100188.50;2505177;28;20050;-83
2024/02/16 04:58:18;;;;;;;9.45;4.63;;;;;;;7.21;80.95;100195.44;2515039;28;20499;-83
2024/02/16 04:59:33;;;;;;;5.20;4.68;;;;;;;7.17;80.92;100194.56;2512160;28;20121;-83
2024/02/16 05:00:47;;;;;;;5.20;4.45;;;;;;;7.15;81.13;100192.81;2505579;28;20046;-84
2024/02/16 05:02:03;;;;;;;6.57;3.42;;;;;;;7.12;80.82;100198.03;2506372;28;20420;-83
2024/02/16 05:03:17;;;;;;;6.30;4.18;;;;;;;7.10;81.07;100197.16;2506610;28;20058;-83
2024/02/16 05:04:33;;;;;;;8.35;4.88;;;;;;;7.08;81.32;100194.59;2508638;28;20574;-83
2024/02/16 05:05:46;;;;;;;5.93;4.63;;;;;;;7.06;81.00;100187.66;2510675;28;20080;-81
2024/02/16 05:07:01;;;;;;;6.28;4.20;;;;;;;7.06;81.19;100191.13;2506059;28;20133;-82
2024/02/16 05:08:14;;;;;;;4.75;3.78;;;;;;;7.05;81.13;100188.53;2505420;28;20047;-83
2024/02/16 05:09:29;;;;;;;7.60;4.50;;;;;;;7.03;81.32;100185.09;2506463;28;20142;-82
2024/02/16 05:10:42;;;;;;;5.72;4.47;;;;;;;7.02;81.34;100193.72;2506137;28;20631;-83
2024/02/16 05:11:56;;;;;;;6.45;4.53;;;;;;;7.04;81.51;100202.38;2505277;28;20070;-84
2024/02/16 05:13:11;;;;;;;8.43;4.28;;;;;;;7.08;81.63;100193.72;2502586;28;20424;-82
2024/02/16 05:14:25;;;;;;;12.23;4.78;;;;;;;7.11;81.66;100198.91;2506155;28;20054;-81
2024/02/16 05:15:40;;;;;;;5.28;3.83;;;;;;;7.15;81.99;100196.31;2507823;28;20042;-82
2024/02/16 05:16:53;;;;;;;5.97;5.05;;;;;;;7.19;81.88;100186.78;2505874;28;20411;-83
2024/02/16 05:18:08;;;;;;;7.03;4.30;;;;;;;7.24;81.58;100194.56;2514366;28;20050;-83
2024/02/16 05:19:21;;;;;;;7.63;4.97;;;;;;;7.24;81.88;100198.00;2514261;28;20053;-83
2024/02/16 05:20:37;;;;;;;4.95;3.22;;;;;;;7.28;81.86;100198.84;2506790;28;20067;-83
2024/02/16 05:21:50;;;;;;;7.55;4.47;;;;;;;7.30;81.98;100200.56;2506905;28;20051;-82
2024/02/16 05:23:05;;;;;;;9.07;4.47;;;;;;;7.30;81.87;100200.56;2507587;28;20125;-82
2024/02/16 05:24:18;;;;;;;5.80;3.92;;;;;;;7.29;82.08;100201.47;2507250;28;20054;-82
2024/02/16 05:25:33;;;;;;;7.75;6.03;;;;;;;7.28;82.08;100198.84;2507008;28;20129;-83
2024/02/16 05:26:46;;;;;;;5.88;3.95;;;;;;;7.28;82.05;100193.66;2506893;28;20516;-82
2024/02/16 05:28:01;;;;;;;5.63;4.25;;;;;;;7.30;81.95;100199.72;2511384;28;20106;-82
2024/02/16 05:29:14;;;;;;;5.43;3.70;;;;;;;7.32;82.03;100205.78;2504967;28;20554;-82
2024/02/16 05:30:29;;;;;;;7.78;4.05;;;;;;;7.35;82.02;100201.44;2508730;28;20077;-83
2024/02/16 05:31:42;;;;;;;5.53;3.63;;;;;;;7.37;82.01;100202.28;2512890;28;20059;-82
2024/02/16 05:32:58;;;;;;;9.95;4.68;;;;;;;7.41;82.09;100203.16;2504425;28;20121;-83
2024/02/16 05:34:12;;;;;;;4.32;3.78;;;;;;;7.43;81.96;100197.09;2504782;28;20059;-83
2024/02/16 05:35:28;;;;;;;6.30;4.65;;;;;;;7.45;82.10;100207.47;2505000;28;20158;-82
2024/02/16 05:36:43;;;;;;;7.35;5.05;;;;;;;7.48;81.84;100207.44;2503833;28;20050;-83
2024/02/16 05:37:58;;;;;;;6.72;4.82;;;;;;;7.50;81.79;100207.47;2504398;28;20053;-82
2024/02/16 05:39:20;;;;;;;10.07;6.03;;;;;;;7.50;82.08;100192.75;2504597;28;20054;-82
2024/02/16 05:40:45;;;;;;;6.65;4.50;;;;;;;7.51;81.62;100201.38;2503726;28;20053;-82
2024/02/16 05:41:58;;;;;;;11.75;7.43;;;;;;;7.50;81.50;100200.53;2508926;28;20433;-83
2024/02/16 05:43:13;;;;;;;7.00;3.25;;;;;;;7.51;81.72;100203.97;2517269;28;20250;-84
2024/02/16 05:44:26;;;;;;;6.13;3.90;;;;;;;7.49;81.51;100197.97;2518896;28;20042;-83
2024/02/16 05:45:41;;;;;;;5.38;3.90;;;;;;;7.48;81.56;100198.81;2514236;28;20070;-83
2024/02/16 05:46:54;;;;;;;7.97;3.88;;;;;;;7.47;81.71;100203.13;2509132;28;20049;-82
2024/02/16 05:48:10;;;;;;;10.00;4.57;;;;;;;7.48;81.70;100204.00;2509125;28;20078;-83
2024/02/16 05:49:24;;;;;;;6.00;4.00;;;;;;;7.47;81.58;100207.47;2501303;28;20051;-82